sensor_id;sensor_type;location;lat;lon;timestamp;P1;durP1;ratioP1;P2;durP2;ratioP2
55575;SDS011;41437;45.478;9.116;2023-04-03T00:01:53;9.73;;;5.50;;
55575;SDS011;41437;45.478;9.116;2023-04-03T00:04:54;8.77;;;5.72;;
55575;SDS011;41437;45.478;9.116;2023-04-03T00:07:57;9.40;;;5.53;;
55575;SDS011;41437;45.478;9.116;2023-04-03T00:10:59;9.98;;;6.10;;
55575;SDS011;41437;45.478;9.116;2023-04-03T00:14:00;8.27;;;5.28;;
55575;SDS011;41437;45.478;9.116;2023-04-03T00:17:02;8.68;;;5.53;;
55575;SDS011;41437;45.478;9.116;2023-04-03T00:20:04;11.60;;;7.05;;
55575;SDS011;41437;45.478;9.116;2023-04-03T00:23:07;11.32;;;6.50;;
55575;SDS011;41437;45.478;9.116;2023-04-03T00:26:09;10.73;;;6.30;;
55575;SDS011;41437;45.478;9.116;2023-04-03T00:29:11;10.88;;;6.60;;
55575;SDS011;41437;45.478;9.116;2023-04-03T00:32:12;12.73;;;6.70;;
55575;SDS011;41437;45.478;9.116;2023-04-03T00:35:14;12.10;;;6.53;;
55575;SDS011;41437;45.478;9.116;2023-04-03T00:38:17;13.02;;;6.63;;
55575;SDS011;41437;45.478;9.116;2023-04-03T00:41:19;10.27;;;6.60;;
55575;SDS011;41437;45.478;9.116;2023-04-03T00:44:21;10.27;;;6.97;;
55575;SDS011;41437;45.478;9.116;2023-04-03T00:47:43;11.23;;;6.65;;
55575;SDS011;41437;45.478;9.116;2023-04-03T00:50:45;11.13;;;6.80;;
55575;SDS011;41437;45.478;9.116;2023-04-03T00:53:50;13.13;;;7.07;;
55575;SDS011;41437;45.478;9.116;2023-04-03T00:56:55;13.48;;;6.97;;
55575;SDS011;41437;45.478;9.116;2023-04-03T00:59:59;11.20;;;6.95;;
55575;SDS011;41437;45.478;9.116;2023-04-03T01:03:06;10.38;;;6.75;;
55575;SDS011;41437;45.478;9.116;2023-04-03T01:06:08;14.43;;;6.82;;
55575;SDS011;41437;45.478;9.116;2023-04-03T01:09:11;10.80;;;6.97;;
55575;SDS011;41437;45.478;9.116;2023-04-03T01:12:13;13.90;;;6.65;;
55575;SDS011;41437;45.478;9.116;2023-04-03T01:15:17;11.73;;;7.50;;
55575;SDS011;41437;45.478;9.116;2023-04-03T01:18:20;11.48;;;6.68;;
55575;SDS011;41437;45.478;9.116;2023-04-03T01:21:41;13.00;;;7.85;;
55575;SDS011;41437;45.478;9.116;2023-04-03T01:25:06;17.15;;;7.75;;
55575;SDS011;41437;45.478;9.116;2023-04-03T01:28:08;16.23;;;8.18;;
55575;SDS011;41437;45.478;9.116;2023-04-03T01:31:13;14.18;;;7.13;;
55575;SDS011;41437;45.478;9.116;2023-04-03T01:34:21;11.25;;;7.07;;
55575;SDS011;41437;45.478;9.116;2023-04-03T01:37:23;10.88;;;6.75;;
55575;SDS011;41437;45.478;9.116;2023-04-03T01:40:25;11.88;;;7.20;;
55575;SDS011;41437;45.478;9.116;2023-04-03T01:43:27;13.18;;;7.47;;
55575;SDS011;41437;45.478;9.116;2023-04-03T01:46:29;13.57;;;7.68;;
55575;SDS011;41437;45.478;9.116;2023-04-03T01:49:32;14.95;;;8.80;;
55575;SDS011;41437;45.478;9.116;2023-04-03T01:52:33;13.45;;;8.82;;
55575;SDS011;41437;45.478;9.116;2023-04-03T01:55:35;13.40;;;8.63;;
55575;SDS011;41437;45.478;9.116;2023-04-03T01:58:36;14.35;;;9.10;;
55575;SDS011;41437;45.478;9.116;2023-04-03T02:01:38;15.43;;;8.90;;
55575;SDS011;41437;45.478;9.116;2023-04-03T02:04:41;15.73;;;9.45;;
55575;SDS011;41437;45.478;9.116;2023-04-03T02:07:43;15.90;;;9.50;;
55575;SDS011;41437;45.478;9.116;2023-04-03T02:10:46;17.38;;;9.55;;
55575;SDS011;41437;45.478;9.116;2023-04-03T02:13:49;16.00;;;10.05;;
55575;SDS011;41437;45.478;9.116;2023-04-03T02:16:50;14.73;;;9.32;;
55575;SDS011;41437;45.478;9.116;2023-04-03T02:19:53;12.75;;;9.32;;
55575;SDS011;41437;45.478;9.116;2023-04-03T02:22:55;14.10;;;9.27;;
55575;SDS011;41437;45.478;9.116;2023-04-03T02:26:02;14.77;;;9.40;;
55575;SDS011;41437;45.478;9.116;2023-04-03T02:29:07;13.80;;;8.80;;
55575;SDS011;41437;45.478;9.116;2023-04-03T02:32:09;13.82;;;8.85;;
55575;SDS011;41437;45.478;9.116;2023-04-03T02:35:12;13.32;;;9.32;;
55575;SDS011;41437;45.478;9.116;2023-04-03T02:38:13;12.75;;;9.10;;
55575;SDS011;41437;45.478;9.116;2023-04-03T02:41:15;16.45;;;9.13;;
55575;SDS011;41437;45.478;9.116;2023-04-03T02:44:16;15.82;;;10.10;;
55575;SDS011;41437;45.478;9.116;2023-04-03T02:47:18;16.25;;;9.88;;
55575;SDS011;41437;45.478;9.116;2023-04-03T02:50:22;15.32;;;9.75;;
55575;SDS011;41437;45.478;9.116;2023-04-03T02:53:23;15.40;;;9.95;;
55575;SDS011;41437;45.478;9.116;2023-04-03T02:56:25;14.80;;;9.95;;
55575;SDS011;41437;45.478;9.116;2023-04-03T02:59:26;15.10;;;10.10;;
55575;SDS011;41437;45.478;9.116;2023-04-03T03:02:28;12.93;;;9.63;;
55575;SDS011;41437;45.478;9.116;2023-04-03T03:05:31;15.77;;;10.13;;
55575;SDS011;41437;45.478;9.116;2023-04-03T03:08:33;18.08;;;10.95;;
55575;SDS011;41437;45.478;9.116;2023-04-03T03:11:35;17.48;;;10.90;;
55575;SDS011;41437;45.478;9.116;2023-04-03T03:14:36;16.30;;;10.45;;
55575;SDS011;41437;45.478;9.116;2023-04-03T03:17:38;17.77;;;11.13;;
55575;SDS011;41437;45.478;9.116;2023-04-03T03:20:41;17.67;;;11.77;;
55575;SDS011;41437;45.478;9.116;2023-04-03T03:23:42;18.92;;;11.52;;
55575;SDS011;41437;45.478;9.116;2023-04-03T03:26:44;15.77;;;11.45;;
55575;SDS011;41437;45.478;9.116;2023-04-03T03:29:45;17.63;;;11.85;;
55575;SDS011;41437;45.478;9.116;2023-04-03T03:32:47;18.02;;;12.00;;
55575;SDS011;41437;45.478;9.116;2023-04-03T03:35:50;17.90;;;11.43;;
55575;SDS011;41437;45.478;9.116;2023-04-03T03:38:53;16.35;;;11.90;;
55575;SDS011;41437;45.478;9.116;2023-04-03T03:41:54;17.23;;;11.27;;
55575;SDS011;41437;45.478;9.116;2023-04-03T03:44:55;16.23;;;10.63;;
55575;SDS011;41437;45.478;9.116;2023-04-03T03:47:57;13.95;;;10.95;;
55575;SDS011;41437;45.478;9.116;2023-04-03T03:51:00;14.48;;;10.82;;
55575;SDS011;41437;45.478;9.116;2023-04-03T03:54:01;16.10;;;10.80;;
55575;SDS011;41437;45.478;9.116;2023-04-03T03:57:03;14.98;;;10.40;;
55575;SDS011;41437;45.478;9.116;2023-04-03T04:00:05;16.90;;;10.25;;
55575;SDS011;41437;45.478;9.116;2023-04-03T04:03:08;15.90;;;10.57;;
55575;SDS011;41437;45.478;9.116;2023-04-03T04:06:11;15.25;;;10.63;;
55575;SDS011;41437;45.478;9.116;2023-04-03T04:09:13;15.05;;;10.63;;
55575;SDS011;41437;45.478;9.116;2023-04-03T04:12:14;15.38;;;10.40;;
55575;SDS011;41437;45.478;9.116;2023-04-03T04:15:16;17.45;;;10.05;;
55575;SDS011;41437;45.478;9.116;2023-04-03T04:18:18;14.55;;;10.38;;
55575;SDS011;41437;45.478;9.116;2023-04-03T04:21:21;18.40;;;11.38;;
55575;SDS011;41437;45.478;9.116;2023-04-03T04:24:23;18.98;;;12.18;;
55575;SDS011;41437;45.478;9.116;2023-04-03T04:27:24;16.35;;;11.10;;
55575;SDS011;41437;45.478;9.116;2023-04-03T04:30:26;18.13;;;11.18;;
55575;SDS011;41437;45.478;9.116;2023-04-03T04:33:27;16.77;;;10.98;;
55575;SDS011;41437;45.478;9.116;2023-04-03T04:36:31;16.65;;;10.95;;
55575;SDS011;41437;45.478;9.116;2023-04-03T04:39:32;17.08;;;10.73;;
55575;SDS011;41437;45.478;9.116;2023-04-03T04:42:34;14.35;;;10.93;;
55575;SDS011;41437;45.478;9.116;2023-04-03T04:45:36;15.35;;;10.70;;
55575;SDS011;41437;45.478;9.116;2023-04-03T04:48:37;16.92;;;10.65;;
55575;SDS011;41437;45.478;9.116;2023-04-03T04:51:41;16.05;;;10.40;;
55575;SDS011;41437;45.478;9.116;2023-04-03T04:54:43;18.20;;;11.93;;
55575;SDS011;41437;45.478;9.116;2023-04-03T04:57:46;18.47;;;12.17;;
55575;SDS011;41437;45.478;9.116;2023-04-03T05:00:47;16.88;;;11.82;;
55575;SDS011;41437;45.478;9.116;2023-04-03T05:03:49;14.80;;;11.50;;
55575;SDS011;41437;45.478;9.116;2023-04-03T05:06:52;18.10;;;11.90;;
55575;SDS011;41437;45.478;9.116;2023-04-03T05:09:56;17.90;;;12.35;;
55575;SDS011;41437;45.478;9.116;2023-04-03T05:12:57;16.35;;;11.75;;
55575;SDS011;41437;45.478;9.116;2023-04-03T05:15:59;18.27;;;11.90;;
55575;SDS011;41437;45.478;9.116;2023-04-03T05:19:02;17.35;;;11.85;;
55575;SDS011;41437;45.478;9.116;2023-04-03T05:22:05;16.17;;;12.05;;
55575;SDS011;41437;45.478;9.116;2023-04-03T05:25:07;17.95;;;11.52;;
55575;SDS011;41437;45.478;9.116;2023-04-03T05:28:09;16.30;;;11.27;;
55575;SDS011;41437;45.478;9.116;2023-04-03T05:31:12;16.30;;;11.52;;
55575;SDS011;41437;45.478;9.116;2023-04-03T05:34:14;16.80;;;11.23;;
55575;SDS011;41437;45.478;9.116;2023-04-03T05:37:17;15.60;;;11.23;;
55575;SDS011;41437;45.478;9.116;2023-04-03T05:40:18;14.68;;;10.77;;
55575;SDS011;41437;45.478;9.116;2023-04-03T05:43:20;16.13;;;11.35;;
55575;SDS011;41437;45.478;9.116;2023-04-03T05:46:22;17.50;;;11.07;;
55575;SDS011;41437;45.478;9.116;2023-04-03T05:49:23;15.88;;;10.90;;
55575;SDS011;41437;45.478;9.116;2023-04-03T05:52:27;17.42;;;11.10;;
55575;SDS011;41437;45.478;9.116;2023-04-03T05:55:30;15.75;;;10.90;;
55575;SDS011;41437;45.478;9.116;2023-04-03T05:58:33;15.43;;;10.57;;
55575;SDS011;41437;45.478;9.116;2023-04-03T06:01:34;14.80;;;10.50;;
55575;SDS011;41437;45.478;9.116;2023-04-03T06:04:36;16.75;;;10.00;;
55575;SDS011;41437;45.478;9.116;2023-04-03T06:07:39;18.25;;;10.32;;
55575;SDS011;41437;45.478;9.116;2023-04-03T06:10:40;19.58;;;10.80;;
55575;SDS011;41437;45.478;9.116;2023-04-03T06:13:42;17.15;;;10.05;;
55575;SDS011;41437;45.478;9.116;2023-04-03T06:16:43;18.30;;;10.45;;
55575;SDS011;41437;45.478;9.116;2023-04-03T06:19:45;18.67;;;10.98;;
55575;SDS011;41437;45.478;9.116;2023-04-03T06:22:48;14.70;;;9.57;;
55575;SDS011;41437;45.478;9.116;2023-04-03T06:25:50;15.65;;;9.63;;
55575;SDS011;41437;45.478;9.116;2023-04-03T06:28:52;18.50;;;10.63;;
55575;SDS011;41437;45.478;9.116;2023-04-03T06:31:53;16.90;;;10.68;;
55575;SDS011;41437;45.478;9.116;2023-04-03T06:34:54;18.50;;;11.48;;
55575;SDS011;41437;45.478;9.116;2023-04-03T06:37:58;18.60;;;12.20;;
55575;SDS011;41437;45.478;9.116;2023-04-03T06:40:59;27.50;;;12.48;;
55575;SDS011;41437;45.478;9.116;2023-04-03T06:44:01;18.30;;;11.52;;
55575;SDS011;41437;45.478;9.116;2023-04-03T06:47:04;20.15;;;11.07;;
55575;SDS011;41437;45.478;9.116;2023-04-03T06:50:06;17.20;;;9.33;;
55575;SDS011;41437;45.478;9.116;2023-04-03T06:53:10;11.77;;;7.55;;
55575;SDS011;41437;45.478;9.116;2023-04-03T06:56:12;13.13;;;7.93;;
55575;SDS011;41437;45.478;9.116;2023-04-03T06:59:13;13.75;;;8.02;;
55575;SDS011;41437;45.478;9.116;2023-04-03T07:02:15;14.88;;;8.23;;
55575;SDS011;41437;45.478;9.116;2023-04-03T07:05:17;15.13;;;8.40;;
55575;SDS011;41437;45.478;9.116;2023-04-03T07:08:20;11.77;;;7.55;;
55575;SDS011;41437;45.478;9.116;2023-04-03T07:11:23;13.48;;;7.82;;
55575;SDS011;41437;45.478;9.116;2023-04-03T07:14:25;10.48;;;7.35;;
55575;SDS011;41437;45.478;9.116;2023-04-03T07:17:28;14.75;;;7.78;;
55575;SDS011;41437;45.478;9.116;2023-04-03T07:20:29;13.50;;;6.57;;
55575;SDS011;41437;45.478;9.116;2023-04-03T07:23:32;12.95;;;7.50;;
55575;SDS011;41437;45.478;9.116;2023-04-03T07:26:34;12.27;;;7.00;;
55575;SDS011;41437;45.478;9.116;2023-04-03T07:29:36;16.83;;;6.55;;
55575;SDS011;41437;45.478;9.116;2023-04-03T07:32:37;10.23;;;6.13;;
55575;SDS011;41437;45.478;9.116;2023-04-03T07:35:39;11.73;;;5.88;;
55575;SDS011;41437;45.478;9.116;2023-04-03T07:38:42;12.02;;;6.05;;
55575;SDS011;41437;45.478;9.116;2023-04-03T07:41:43;16.02;;;6.15;;
55575;SDS011;41437;45.478;9.116;2023-04-03T07:44:46;10.32;;;5.68;;
55575;SDS011;41437;45.478;9.116;2023-04-03T07:47:47;14.18;;;6.93;;
55575;SDS011;41437;45.478;9.116;2023-04-03T07:50:49;14.52;;;6.47;;
55575;SDS011;41437;45.478;9.116;2023-04-03T07:53:52;14.75;;;6.10;;
55575;SDS011;41437;45.478;9.116;2023-04-03T07:56:54;10.55;;;5.43;;
55575;SDS011;41437;45.478;9.116;2023-04-03T07:59:58;11.40;;;5.70;;
55575;SDS011;41437;45.478;9.116;2023-04-03T08:02:59;13.20;;;5.68;;
55575;SDS011;41437;45.478;9.116;2023-04-03T08:06:02;11.30;;;6.13;;
55575;SDS011;41437;45.478;9.116;2023-04-03T08:09:06;10.88;;;6.60;;
55575;SDS011;41437;45.478;9.116;2023-04-03T08:15:11;11.05;;;5.80;;
55575;SDS011;41437;45.478;9.116;2023-04-03T08:18:13;13.20;;;5.82;;
55575;SDS011;41437;45.478;9.116;2023-04-03T08:21:15;11.18;;;5.63;;
55575;SDS011;41437;45.478;9.116;2023-04-03T08:24:22;10.20;;;5.43;;
55575;SDS011;41437;45.478;9.116;2023-04-03T08:27:23;9.32;;;6.32;;
55575;SDS011;41437;45.478;9.116;2023-04-03T08:30:26;12.13;;;5.50;;
55575;SDS011;41437;45.478;9.116;2023-04-03T08:33:28;11.55;;;6.13;;
55575;SDS011;41437;45.478;9.116;2023-04-03T08:36:29;9.35;;;5.32;;
55575;SDS011;41437;45.478;9.116;2023-04-03T08:39:34;8.67;;;5.37;;
55575;SDS011;41437;45.478;9.116;2023-04-03T08:45:45;11.65;;;5.40;;
55575;SDS011;41437;45.478;9.116;2023-04-03T08:48:50;7.80;;;4.57;;
55575;SDS011;41437;45.478;9.116;2023-04-03T08:51:52;10.40;;;5.05;;
55575;SDS011;41437;45.478;9.116;2023-04-03T08:54:59;10.18;;;4.50;;
55575;SDS011;41437;45.478;9.116;2023-04-03T08:58:05;13.80;;;5.03;;
55575;SDS011;41437;45.478;9.116;2023-04-03T09:01:15;9.65;;;4.55;;
55575;SDS011;41437;45.478;9.116;2023-04-03T09:04:20;10.45;;;4.53;;
55575;SDS011;41437;45.478;9.116;2023-04-03T09:07:23;19.77;;;5.18;;
55575;SDS011;41437;45.478;9.116;2023-04-03T09:10:34;39.80;;;7.57;;
55575;SDS011;41437;45.478;9.116;2023-04-03T09:13:44;23.45;;;6.38;;
55575;SDS011;41437;45.478;9.116;2023-04-03T09:16:54;10.60;;;5.53;;
55575;SDS011;41437;45.478;9.116;2023-04-03T09:19:58;8.68;;;5.43;;
55575;SDS011;41437;45.478;9.116;2023-04-03T09:23:17;8.15;;;5.50;;
55575;SDS011;41437;45.478;9.116;2023-04-03T09:26:26;21.30;;;5.67;;
55575;SDS011;41437;45.478;9.116;2023-04-03T09:29:31;14.65;;;5.20;;
55575;SDS011;41437;45.478;9.116;2023-04-03T09:32:36;17.52;;;6.13;;
55575;SDS011;41437;45.478;9.116;2023-04-03T09:35:38;15.48;;;5.35;;
55575;SDS011;41437;45.478;9.116;2023-04-03T09:38:43;18.75;;;5.63;;
55575;SDS011;41437;45.478;9.116;2023-04-03T09:41:57;19.38;;;5.90;;
55575;SDS011;41437;45.478;9.116;2023-04-03T09:45:01;7.88;;;4.78;;
55575;SDS011;41437;45.478;9.116;2023-04-03T09:48:06;7.25;;;4.80;;
55575;SDS011;41437;45.478;9.116;2023-04-03T09:51:09;10.40;;;5.40;;
55575;SDS011;41437;45.478;9.116;2023-04-03T09:54:30;8.15;;;5.80;;
55575;SDS011;41437;45.478;9.116;2023-04-03T09:57:41;8.50;;;5.53;;
55575;SDS011;41437;45.478;9.116;2023-04-03T10:00:43;7.50;;;5.47;;
55575;SDS011;41437;45.478;9.116;2023-04-03T10:04:05;7.85;;;4.78;;
55575;SDS011;41437;45.478;9.116;2023-04-03T10:07:25;7.90;;;4.90;;
55575;SDS011;41437;45.478;9.116;2023-04-03T10:10:29;8.25;;;4.80;;
55575;SDS011;41437;45.478;9.116;2023-04-03T10:13:33;7.47;;;4.40;;
55575;SDS011;41437;45.478;9.116;2023-04-03T10:16:36;9.63;;;4.60;;
55575;SDS011;41437;45.478;9.116;2023-04-03T10:19:44;7.60;;;4.65;;
55575;SDS011;41437;45.478;9.116;2023-04-03T10:22:51;11.73;;;4.50;;
55575;SDS011;41437;45.478;9.116;2023-04-03T10:26:06;8.45;;;4.68;;
55575;SDS011;41437;45.478;9.116;2023-04-03T10:29:31;6.25;;;4.28;;
55575;SDS011;41437;45.478;9.116;2023-04-03T10:32:45;6.28;;;4.43;;
55575;SDS011;41437;45.478;9.116;2023-04-03T10:35:58;7.93;;;4.13;;
55575;SDS011;41437;45.478;9.116;2023-04-03T10:39:15;6.50;;;4.15;;
55575;SDS011;41437;45.478;9.116;2023-04-03T10:42:33;6.75;;;3.83;;
55575;SDS011;41437;45.478;9.116;2023-04-03T10:45:46;7.22;;;4.07;;
55575;SDS011;41437;45.478;9.116;2023-04-03T10:52:28;7.43;;;4.20;;
55575;SDS011;41437;45.478;9.116;2023-04-03T10:55:34;6.95;;;3.80;;
55575;SDS011;41437;45.478;9.116;2023-04-03T10:58:38;5.43;;;3.47;;
55575;SDS011;41437;45.478;9.116;2023-04-03T11:01:46;7.93;;;4.00;;
55575;SDS011;41437;45.478;9.116;2023-04-03T11:04:55;7.95;;;4.15;;
55575;SDS011;41437;45.478;9.116;2023-04-03T11:08:00;10.65;;;4.05;;
55575;SDS011;41437;45.478;9.116;2023-04-03T11:11:11;8.23;;;3.95;;
55575;SDS011;41437;45.478;9.116;2023-04-03T11:14:18;7.18;;;3.60;;
55575;SDS011;41437;45.478;9.116;2023-04-03T11:17:29;5.40;;;3.80;;
55575;SDS011;41437;45.478;9.116;2023-04-03T11:20:34;7.75;;;3.50;;
55575;SDS011;41437;45.478;9.116;2023-04-03T11:23:39;5.25;;;3.60;;
55575;SDS011;41437;45.478;9.116;2023-04-03T11:26:44;8.60;;;3.90;;
55575;SDS011;41437;45.478;9.116;2023-04-03T11:29:46;9.52;;;4.68;;
55575;SDS011;41437;45.478;9.116;2023-04-03T11:32:55;5.47;;;4.13;;
55575;SDS011;41437;45.478;9.116;2023-04-03T11:36:07;6.70;;;4.63;;
55575;SDS011;41437;45.478;9.116;2023-04-03T11:39:16;7.10;;;4.15;;
55575;SDS011;41437;45.478;9.116;2023-04-03T11:42:27;8.32;;;4.57;;
55575;SDS011;41437;45.478;9.116;2023-04-03T11:45:36;9.02;;;4.43;;
55575;SDS011;41437;45.478;9.116;2023-04-03T11:48:57;6.60;;;4.40;;
55575;SDS011;41437;45.478;9.116;2023-04-03T11:51:59;6.72;;;3.95;;
55575;SDS011;41437;45.478;9.116;2023-04-03T11:55:01;6.93;;;3.58;;
55575;SDS011;41437;45.478;9.116;2023-04-03T11:58:04;7.63;;;3.55;;
55575;SDS011;41437;45.478;9.116;2023-04-03T12:01:14;6.30;;;3.70;;
55575;SDS011;41437;45.478;9.116;2023-04-03T12:04:54;7.20;;;4.43;;
55575;SDS011;41437;45.478;9.116;2023-04-03T12:08:29;7.47;;;4.65;;
55575;SDS011;41437;45.478;9.116;2023-04-03T12:11:44;7.13;;;4.43;;
55575;SDS011;41437;45.478;9.116;2023-04-03T12:14:46;8.43;;;4.60;;
55575;SDS011;41437;45.478;9.116;2023-04-03T12:17:48;8.18;;;4.32;;
55575;SDS011;41437;45.478;9.116;2023-04-03T12:20:54;5.82;;;3.83;;
55575;SDS011;41437;45.478;9.116;2023-04-03T12:24:00;9.40;;;4.35;;
55575;SDS011;41437;45.478;9.116;2023-04-03T12:27:04;7.82;;;3.65;;
55575;SDS011;41437;45.478;9.116;2023-04-03T12:30:17;6.95;;;3.70;;
55575;SDS011;41437;45.478;9.116;2023-04-03T12:33:23;6.63;;;3.30;;
55575;SDS011;41437;45.478;9.116;2023-04-03T12:36:36;5.22;;;2.92;;
55575;SDS011;41437;45.478;9.116;2023-04-03T12:39:54;9.10;;;3.28;;
55575;SDS011;41437;45.478;9.116;2023-04-03T12:43:15;5.32;;;2.95;;
55575;SDS011;41437;45.478;9.116;2023-04-03T12:46:26;5.75;;;2.80;;
55575;SDS011;41437;45.478;9.116;2023-04-03T12:49:38;7.07;;;2.70;;
55575;SDS011;41437;45.478;9.116;2023-04-03T12:52:45;5.28;;;2.78;;
55575;SDS011;41437;45.478;9.116;2023-04-03T12:55:53;12.20;;;3.42;;
55575;SDS011;41437;45.478;9.116;2023-04-03T12:58:55;9.25;;;3.30;;
55575;SDS011;41437;45.478;9.116;2023-04-03T13:01:57;19.40;;;4.68;;
55575;SDS011;41437;45.478;9.116;2023-04-03T13:05:04;7.65;;;3.00;;
55575;SDS011;41437;45.478;9.116;2023-04-03T13:08:10;5.25;;;2.78;;
55575;SDS011;41437;45.478;9.116;2023-04-03T13:11:15;5.65;;;2.33;;
55575;SDS011;41437;45.478;9.116;2023-04-03T13:14:19;4.20;;;2.42;;
55575;SDS011;41437;45.478;9.116;2023-04-03T13:17:24;6.50;;;2.63;;
55575;SDS011;41437;45.478;9.116;2023-04-03T13:20:28;6.30;;;2.60;;
55575;SDS011;41437;45.478;9.116;2023-04-03T13:23:34;4.78;;;2.50;;
55575;SDS011;41437;45.478;9.116;2023-04-03T13:26:39;6.28;;;2.53;;
55575;SDS011;41437;45.478;9.116;2023-04-03T13:29:41;5.15;;;2.50;;
55575;SDS011;41437;45.478;9.116;2023-04-03T13:32:42;5.75;;;2.50;;
55575;SDS011;41437;45.478;9.116;2023-04-03T13:35:45;6.75;;;2.72;;
55575;SDS011;41437;45.478;9.116;2023-04-03T13:38:58;6.32;;;2.70;;
55575;SDS011;41437;45.478;9.116;2023-04-03T13:42:14;5.70;;;2.53;;
55575;SDS011;41437;45.478;9.116;2023-04-03T13:45:18;5.57;;;2.38;;
55575;SDS011;41437;45.478;9.116;2023-04-03T13:48:24;6.88;;;2.75;;
55575;SDS011;41437;45.478;9.116;2023-04-03T13:51:25;4.20;;;2.55;;
55575;SDS011;41437;45.478;9.116;2023-04-03T13:54:33;6.47;;;2.50;;
55575;SDS011;41437;45.478;9.116;2023-04-03T13:57:35;6.22;;;2.80;;
55575;SDS011;41437;45.478;9.116;2023-04-03T14:00:39;4.40;;;2.50;;
55575;SDS011;41437;45.478;9.116;2023-04-03T14:03:52;5.95;;;2.58;;
55575;SDS011;41437;45.478;9.116;2023-04-03T14:06:56;4.47;;;2.45;;
55575;SDS011;41437;45.478;9.116;2023-04-03T14:09:59;6.00;;;2.80;;
55575;SDS011;41437;45.478;9.116;2023-04-03T14:13:01;9.10;;;2.95;;
55575;SDS011;41437;45.478;9.116;2023-04-03T14:16:03;7.88;;;2.50;;
55575;SDS011;41437;45.478;9.116;2023-04-03T14:19:05;5.25;;;2.50;;
55575;SDS011;41437;45.478;9.116;2023-04-03T14:22:11;6.20;;;2.40;;
55575;SDS011;41437;45.478;9.116;2023-04-03T14:25:19;5.20;;;2.40;;
55575;SDS011;41437;45.478;9.116;2023-04-03T14:28:23;4.70;;;2.50;;
55575;SDS011;41437;45.478;9.116;2023-04-03T14:31:26;4.38;;;2.45;;
55575;SDS011;41437;45.478;9.116;2023-04-03T14:34:27;7.93;;;2.63;;
55575;SDS011;41437;45.478;9.116;2023-04-03T14:37:29;6.25;;;2.38;;
55575;SDS011;41437;45.478;9.116;2023-04-03T14:40:33;7.97;;;2.33;;
55575;SDS011;41437;45.478;9.116;2023-04-03T14:43:37;7.47;;;1.98;;
55575;SDS011;41437;45.478;9.116;2023-04-03T14:46:39;5.90;;;2.15;;
55575;SDS011;41437;45.478;9.116;2023-04-03T14:52:55;8.25;;;2.95;;
55575;SDS011;41437;45.478;9.116;2023-04-03T14:56:08;7.50;;;2.92;;
55575;SDS011;41437;45.478;9.116;2023-04-03T14:59:13;7.18;;;3.20;;
55575;SDS011;41437;45.478;9.116;2023-04-03T15:02:24;6.82;;;2.83;;
55575;SDS011;41437;45.478;9.116;2023-04-03T15:05:28;6.82;;;3.00;;
55575;SDS011;41437;45.478;9.116;2023-04-03T15:08:33;7.80;;;4.00;;
55575;SDS011;41437;45.478;9.116;2023-04-03T15:11:43;7.82;;;3.00;;
55575;SDS011;41437;45.478;9.116;2023-04-03T15:14:46;7.47;;;2.80;;
55575;SDS011;41437;45.478;9.116;2023-04-03T15:17:53;5.10;;;2.50;;
55575;SDS011;41437;45.478;9.116;2023-04-03T15:20:58;6.45;;;2.40;;
55575;SDS011;41437;45.478;9.116;2023-04-03T15:24:00;3.88;;;2.30;;
55575;SDS011;41437;45.478;9.116;2023-04-03T15:27:04;5.30;;;2.50;;
55575;SDS011;41437;45.478;9.116;2023-04-03T15:30:07;4.22;;;2.40;;
55575;SDS011;41437;45.478;9.116;2023-04-03T15:33:14;10.93;;;3.20;;
55575;SDS011;41437;45.478;9.116;2023-04-03T15:36:16;7.13;;;2.67;;
55575;SDS011;41437;45.478;9.116;2023-04-03T15:39:18;6.38;;;2.75;;
55575;SDS011;41437;45.478;9.116;2023-04-03T15:42:25;7.75;;;2.72;;
55575;SDS011;41437;45.478;9.116;2023-04-03T15:45:28;9.90;;;2.97;;
55575;SDS011;41437;45.478;9.116;2023-04-03T15:48:31;7.40;;;3.13;;
55575;SDS011;41437;45.478;9.116;2023-04-03T15:51:33;6.97;;;2.90;;
55575;SDS011;41437;45.478;9.116;2023-04-03T15:54:36;8.15;;;2.80;;
55575;SDS011;41437;45.478;9.116;2023-04-03T15:57:40;8.10;;;3.17;;
55575;SDS011;41437;45.478;9.116;2023-04-03T16:00:44;9.43;;;3.03;;
55575;SDS011;41437;45.478;9.116;2023-04-03T16:03:48;6.18;;;2.70;;
55575;SDS011;41437;45.478;9.116;2023-04-03T16:06:50;8.43;;;3.08;;
55575;SDS011;41437;45.478;9.116;2023-04-03T16:09:52;7.63;;;3.00;;
55575;SDS011;41437;45.478;9.116;2023-04-03T16:12:57;6.25;;;2.88;;
55575;SDS011;41437;45.478;9.116;2023-04-03T16:16:00;6.82;;;3.22;;
55575;SDS011;41437;45.478;9.116;2023-04-03T16:19:03;6.78;;;3.10;;
55575;SDS011;41437;45.478;9.116;2023-04-03T16:22:14;7.88;;;2.80;;
55575;SDS011;41437;45.478;9.116;2023-04-03T16:25:17;7.43;;;2.78;;
55575;SDS011;41437;45.478;9.116;2023-04-03T16:28:22;7.95;;;3.08;;
55575;SDS011;41437;45.478;9.116;2023-04-03T16:31:24;6.85;;;3.45;;
55575;SDS011;41437;45.478;9.116;2023-04-03T16:34:27;7.15;;;2.97;;
55575;SDS011;41437;45.478;9.116;2023-04-03T16:37:30;7.70;;;3.07;;
55575;SDS011;41437;45.478;9.116;2023-04-03T16:40:33;8.40;;;3.00;;
55575;SDS011;41437;45.478;9.116;2023-04-03T16:43:37;8.25;;;2.80;;
55575;SDS011;41437;45.478;9.116;2023-04-03T16:46:39;7.85;;;3.10;;
55575;SDS011;41437;45.478;9.116;2023-04-03T16:49:44;6.55;;;2.60;;
55575;SDS011;41437;45.478;9.116;2023-04-03T16:52:45;9.73;;;2.92;;
55575;SDS011;41437;45.478;9.116;2023-04-03T16:59:04;7.55;;;2.63;;
55575;SDS011;41437;45.478;9.116;2023-04-03T17:02:09;11.13;;;2.90;;
55575;SDS011;41437;45.478;9.116;2023-04-03T17:05:12;6.75;;;2.85;;
55575;SDS011;41437;45.478;9.116;2023-04-03T17:08:15;8.70;;;2.88;;
55575;SDS011;41437;45.478;9.116;2023-04-03T17:11:17;10.95;;;3.08;;
55575;SDS011;41437;45.478;9.116;2023-04-03T17:14:20;12.00;;;2.90;;
55575;SDS011;41437;45.478;9.116;2023-04-03T17:17:24;7.60;;;2.70;;
55575;SDS011;41437;45.478;9.116;2023-04-03T17:20:26;7.00;;;2.72;;
55575;SDS011;41437;45.478;9.116;2023-04-03T17:23:31;6.40;;;2.40;;
55575;SDS011;41437;45.478;9.116;2023-04-03T17:26:36;7.80;;;2.67;;
55575;SDS011;41437;45.478;9.116;2023-04-03T17:29:39;8.05;;;2.63;;
55575;SDS011;41437;45.478;9.116;2023-04-03T17:32:41;7.57;;;2.55;;
55575;SDS011;41437;45.478;9.116;2023-04-03T17:35:42;8.48;;;2.80;;
55575;SDS011;41437;45.478;9.116;2023-04-03T17:38:44;8.43;;;2.63;;
55575;SDS011;41437;45.478;9.116;2023-04-03T17:41:47;5.95;;;2.53;;
55575;SDS011;41437;45.478;9.116;2023-04-03T17:44:50;6.93;;;2.60;;
55575;SDS011;41437;45.478;9.116;2023-04-03T17:47:51;5.22;;;2.28;;
55575;SDS011;41437;45.478;9.116;2023-04-03T17:50:52;7.70;;;2.42;;
55575;SDS011;41437;45.478;9.116;2023-04-03T17:53:54;9.05;;;2.63;;
55575;SDS011;41437;45.478;9.116;2023-04-03T17:56:56;5.90;;;2.50;;
55575;SDS011;41437;45.478;9.116;2023-04-03T17:59:59;9.35;;;2.63;;
55575;SDS011;41437;45.478;9.116;2023-04-03T18:03:00;8.52;;;3.42;;
55575;SDS011;41437;45.478;9.116;2023-04-03T18:06:02;20.73;;;4.32;;
55575;SDS011;41437;45.478;9.116;2023-04-03T18:09:04;14.77;;;6.93;;
55575;SDS011;41437;45.478;9.116;2023-04-03T18:12:08;8.82;;;3.15;;
55575;SDS011;41437;45.478;9.116;2023-04-03T18:15:11;7.93;;;2.60;;
55575;SDS011;41437;45.478;9.116;2023-04-03T18:18:14;10.80;;;2.58;;
55575;SDS011;41437;45.478;9.116;2023-04-03T18:21:16;7.47;;;2.72;;
55575;SDS011;41437;45.478;9.116;2023-04-03T18:24:18;9.10;;;2.50;;
55575;SDS011;41437;45.478;9.116;2023-04-03T18:27:22;11.52;;;2.78;;
55575;SDS011;41437;45.478;9.116;2023-04-03T18:30:29;6.93;;;2.67;;
55575;SDS011;41437;45.478;9.116;2023-04-03T18:33:31;8.60;;;2.95;;
55575;SDS011;41437;45.478;9.116;2023-04-03T18:36:32;6.88;;;3.05;;